Amasa, Michigan
Current Conditions -  °F | °C
As of 11:54 PM on Saturday 25 Oct 2014 (Local Time) from KIMT Reporting Station
Clear Clear  
Wind Chill: 41°   Ceiling: Unl
Heat Index: 47°   Visibility: 10mi
Dew Point: 27°   Wind: 14mph
Humidity: 46%   Direction: 320°NW
Pressure: 29.88"   Gusts: NA
Location:  46.23°N, 88.45°W
Report Text: KIMT 260454Z AUTO 32012KT 10SM CLR 08/M03 A2988 RMK AO2 SLP123 T00831028
Loading
Personal Weather Stations






























Interactive Weather Map
Tropical Storm Tracking
New forecast layout! Learn more

10-Day Weather Forecast

Advertisements
Track Severe Weather on mobile